Time;durP1;ratioP1;P1;durP2;ratioP2;P2;SDS_P1;SDS_P2;PMS_P1;PMS_P2;Temp;Humidity;BMP_temperature;BMP_pressure;BME280_temperature;BME280_humidity;BME280_pressure;Samples;Min_cycle;Max_cycle;Signal;HPM_P1;HPM_P2
2022/07/25 00:01:46;;;;;;;12.50;8.00;;;;;;;18.20;87.74;99232.27;108948;1277;138849;-54
2022/07/25 00:04:13;;;;;;;10.10;7.20;;;;;;;18.16;87.68;99229.69;109049;1278;22694;-54
2022/07/25 00:06:41;;;;;;;8.10;7.20;;;;;;;18.14;87.78;99229.14;108975;1277;139465;-54
2022/07/25 00:09:08;;;;;;;13.30;7.50;;;;;;;18.13;87.63;99233.45;108814;1280;23325;-54
2022/07/25 00:11:35;;;;;;;8.40;6.40;;;;;;;18.13;87.62;99235.16;109099;1277;22469;-54
2022/07/25 00:14:02;;;;;;;12.50;7.40;;;;;;;18.09;87.40;99234.10;109017;1277;138580;-54
2022/07/25 00:16:29;;;;;;;9.20;6.90;;;;;;;18.04;87.23;99226.05;109007;1280;22442;-54
2022/07/25 00:18:56;;;;;;;7.80;6.60;;;;;;;18.01;87.28;99231.11;108886;1277;138218;-54
2022/07/25 00:21:23;;;;;;;8.40;7.10;;;;;;;17.98;87.21;99229.76;109069;1277;22482;-54
2022/07/25 00:23:50;;;;;;;9.40;7.60;;;;;;;17.95;87.20;99228.49;109066;1277;22443;-54
2022/07/25 00:26:17;;;;;;;8.10;7.20;;;;;;;17.93;87.17;99229.97;108893;1278;138784;-53
2022/07/25 00:28:43;;;;;;;7.60;6.70;;;;;;;17.92;87.13;99228.08;108977;1279;23686;-53
2022/07/25 00:31:10;;;;;;;10.40;6.80;;;;;;;17.91;87.23;99230.40;108848;1279;139503;-53
2022/07/25 00:33:39;;;;;;;18.10;7.20;;;;;;;17.90;87.23;99231.27;109019;1279;23385;-53
2022/07/25 00:36:07;;;;;;;9.10;6.90;;;;;;;17.88;87.19;99235.52;108841;1277;138649;-53
2022/07/25 00:38:33;;;;;;;9.40;7.40;;;;;;;17.86;87.32;99237.77;108979;1279;23276;-53
2022/07/25 00:41:01;;;;;;;10.20;7.90;;;;;;;17.83;87.36;99240.63;109147;1277;22425;-53
2022/07/25 00:43:28;;;;;;;8.30;7.30;;;;;;;17.79;87.30;99237.16;108749;1280;139767;-53
2022/07/25 00:45:57;;;;;;;8.10;7.20;;;;;;;17.77;87.42;99238.69;109088;1278;22450;-53
2022/07/25 00:48:26;;;;;;;10.50;7.80;;;;;;;17.74;87.44;99233.20;108965;1280;138530;-53
2022/07/25 00:50:53;;;;;;;8.30;6.70;;;;;;;17.69;87.58;99233.10;108852;1280;22428;-53
2022/07/25 00:53:21;;;;;;;9.50;7.30;;;;;;;17.66;87.78;99229.63;108896;1281;22461;-53
2022/07/25 00:55:47;;;;;;;7.90;7.10;;;;;;;17.63;87.75;99227.26;107755;1280;138474;-52
2022/07/25 00:58:14;;;;;;;9.30;7.50;;;;;;;17.60;87.78;99228.39;104793;1280;24315;-51
2022/07/25 01:00:41;;;;;;;7.50;6.80;;;;;;;17.57;88.00;99228.89;104542;1279;139252;-51
2022/07/25 01:03:08;;;;;;;7.40;6.50;;;;;;;17.55;87.92;99226.79;104634;1280;24239;-51
2022/07/25 01:05:35;;;;;;;12.50;7.70;;;;;;;17.52;88.07;99227.02;104695;1280;24289;-52
2022/07/25 01:08:02;;;;;;;9.60;7.20;;;;;;;17.49;88.13;99221.80;104490;1279;138425;-51
2022/07/25 01:10:31;;;;;;;8.50;7.30;;;;;;;17.44;88.00;99220.59;104645;1280;24319;-51
2022/07/25 01:12:57;;;;;;;8.80;7.00;;;;;;;17.44;88.07;99223.97;104591;1280;140179;-51
2022/07/25 01:15:24;;;;;;;12.30;7.30;;;;;;;17.41;88.08;99226.51;104533;1279;26670;-53
2022/07/25 01:17:51;;;;;;;15.00;7.00;;;;;;;17.39;88.05;99227.70;104685;1279;22961;-50
2022/07/25 01:20:22;;;;;;;11.20;7.50;;;;;;;17.36;88.01;99226.84;104508;1279;138924;-51
2022/07/25 01:22:49;;;;;;;9.60;7.40;;;;;;;17.33;87.98;99229.75;108893;1279;22518;-52
2022/07/25 01:25:16;;;;;;;11.40;8.00;;;;;;;17.30;88.00;99229.00;108746;1281;138713;-52
2022/07/25 01:27:43;;;;;;;9.30;6.80;;;;;;;17.29;88.08;99231.23;108910;1279;22547;-52
2022/07/25 01:30:11;;;;;;;9.70;6.90;;;;;;;17.30;88.13;99233.64;108854;1279;138330;-52
2022/07/25 01:32:38;;;;;;;13.70;7.00;;;;;;;17.29;87.83;99231.58;108828;1279;22429;-53
2022/07/25 01:35:05;;;;;;;9.10;6.90;;;;;;;17.24;87.72;99230.23;108891;1278;23453;-52
2022/07/25 01:37:32;;;;;;;8.90;7.20;;;;;;;17.23;87.70;99229.11;108651;1281;138816;-52
2022/07/25 01:39:59;;;;;;;9.20;7.30;;;;;;;17.22;87.75;99228.80;108887;1279;22478;-52
2022/07/25 01:42:26;;;;;;;8.10;7.10;;;;;;;17.22;87.82;99235.41;108757;1279;138330;-52
2022/07/25 01:44:53;;;;;;;10.70;6.80;;;;;;;17.22;87.77;99236.39;109100;1277;22715;-52
2022/07/25 01:47:20;;;;;;;10.70;7.40;;;;;;;17.23;87.68;99234.23;109088;1277;23394;-52
2022/07/25 01:49:47;;;;;;;9.90;7.20;;;;;;;17.23;87.64;99231.80;109052;1275;141078;-52
2022/07/25 01:52:14;;;;;;;11.20;7.00;;;;;;;17.25;87.48;99232.37;109245;1276;23128;-52
2022/07/25 01:54:41;;;;;;;9.00;7.20;;;;;;;17.26;87.41;99231.64;109186;1276;138119;-52
2022/07/25 01:57:09;;;;;;;7.60;6.50;;;;;;;17.27;87.32;99233.83;109233;1274;22453;-52
2022/07/25 01:59:40;;;;;;;10.30;7.20;;;;;;;17.28;87.26;99237.98;109267;1276;22467;-52
2022/07/25 02:02:07;;;;;;;11.70;7.30;;;;;;;17.29;87.21;99240.49;109008;1276;139130;-53
2022/07/25 02:04:34;;;;;;;8.70;6.40;;;;;;;17.30;87.08;99236.35;109116;1278;22432;-53
2022/07/25 02:07:01;;;;;;;8.00;6.20;;;;;;;17.29;87.04;99237.45;109137;1276;140004;-53
2022/07/25 02:09:28;;;;;;;12.00;6.90;;;;;;;17.29;86.89;99238.13;109197;1275;22523;-52
2022/07/25 02:11:55;;;;;;;7.80;6.70;;;;;;;17.29;86.72;99240.34;109030;1276;139393;-53
2022/07/25 02:14:22;;;;;;;11.10;6.40;;;;;;;17.28;86.68;99236.16;109120;1278;22641;-52
2022/07/25 02:16:49;;;;;;;7.90;6.40;;;;;;;17.30;86.40;99238.11;109154;1276;23373;-52
2022/07/25 02:19:16;;;;;;;11.00;6.40;;;;;;;17.29;86.36;99240.44;109005;1278;138765;-52
2022/07/25 02:21:42;;;;;;;9.80;6.90;;;;;;;17.28;86.13;99237.98;109101;1277;22442;-53
2022/07/25 02:24:09;;;;;;;8.80;6.30;;;;;;;17.27;85.93;99240.43;109015;1278;139365;-52
2022/07/25 02:26:36;;;;;;;9.10;5.40;;;;;;;17.23;85.72;99239.73;109161;1278;22493;-53
2022/07/25 02:29:03;;;;;;;7.40;5.80;;;;;;;17.17;85.80;99232.98;109264;1276;22478;-53
2022/07/25 02:31:30;;;;;;;10.00;6.90;;;;;;;17.17;85.69;99233.52;109002;1277;138642;-53
2022/07/25 02:33:56;;;;;;;11.10;6.40;;;;;;;17.11;85.71;99238.52;109065;1277;22590;-53
2022/07/25 02:36:23;;;;;;;9.00;6.60;;;;;;;17.04;85.64;99240.70;109005;1278;139095;-59
2022/07/25 02:38:50;;;;;;;8.90;6.00;;;;;;;16.96;85.72;99235.24;109159;1277;23843;-59
2022/07/25 02:41:17;;;;;;;8.10;6.30;;;;;;;16.92;85.90;99237.25;109150;1278;22568;-59
2022/07/25 02:43:43;;;;;;;10.80;6.20;;;;;;;16.87;85.95;99239.90;109169;1276;138154;-58
2022/07/25 02:46:10;;;;;;;16.70;6.50;;;;;;;16.83;86.18;99242.35;109103;1277;22603;-58
2022/07/25 02:48:37;;;;;;;7.10;6.10;;;;;;;16.81;86.41;99244.14;109088;1276;139154;-59
2022/07/25 02:51:04;;;;;;;9.50;7.30;;;;;;;16.79;86.33;99243.84;109083;1277;22466;-58
2022/07/25 02:53:31;;;;;;;10.30;6.40;;;;;;;16.75;86.19;99247.00;109225;1276;22552;-58
2022/07/25 02:56:17;;;;;;;13.00;6.80;;;;;;;16.71;86.23;99242.86;109048;1277;139377;-58
2022/07/25 02:58:46;;;;;;;14.60;7.00;;;;;;;16.70;86.39;99245.04;109128;1278;22434;-58
2022/07/25 03:01:13;;;;;;;10.50;6.70;;;;;;;16.66;86.25;99250.33;109053;1277;138481;-58
2022/07/25 03:03:40;;;;;;;11.30;6.70;;;;;;;16.60;86.38;99248.70;109257;1274;22504;-59
2022/07/25 03:06:07;;;;;;;7.50;6.10;;;;;;;16.54;86.54;99251.08;107556;1275;139089;-59
2022/07/25 03:08:34;;;;;;;7.20;6.40;;;;;;;16.54;86.61;99252.66;104831;1277;24012;-59
2022/07/25 03:11:01;;;;;;;10.50;6.70;;;;;;;16.50;86.80;99258.50;104884;1277;23137;-58
2022/07/25 03:13:28;;;;;;;9.50;6.40;;;;;;;16.48;86.81;99249.79;104774;1277;139458;-60
2022/07/25 03:15:54;;;;;;;12.30;6.90;;;;;;;16.47;87.07;99248.22;104687;1278;22571;-58
2022/07/25 03:18:21;;;;;;;8.20;5.80;;;;;;;16.46;87.20;99253.29;104838;1277;140111;-59
2022/07/25 03:20:48;;;;;;;7.50;6.70;;;;;;;16.45;87.28;99245.55;105016;1277;24377;-58
2022/07/25 03:23:15;;;;;;;8.40;6.20;;;;;;;16.46;87.50;99250.27;105041;1277;22568;-58
2022/07/25 03:25:41;;;;;;;10.90;6.20;;;;;;;16.47;87.52;99250.08;104874;1277;138163;-58
2022/07/25 03:28:08;;;;;;;10.10;5.70;;;;;;;16.47;87.37;99250.03;105051;1277;22756;-58
2022/07/25 03:30:35;;;;;;;8.00;6.90;;;;;;;16.44;87.25;99245.19;109179;1275;138529;-59
2022/07/25 03:33:02;;;;;;;8.60;6.00;;;;;;;16.43;87.41;99245.35;109236;1276;22477;-58
2022/07/25 03:35:29;;;;;;;15.90;6.10;;;;;;;16.41;87.34;99245.88;109362;1276;22430;-59
2022/07/25 03:37:56;;;;;;;8.70;6.20;;;;;;;16.40;87.40;99247.98;109188;1275;138659;-58
2022/07/25 03:40:22;;;;;;;11.00;5.90;;;;;;;16.40;87.50;99246.50;109267;1276;22431;-58
2022/07/25 03:42:49;;;;;;;10.50;5.70;;;;;;;16.41;87.60;99242.24;109029;1277;139106;-58
2022/07/25 03:45:16;;;;;;;7.00;5.70;;;;;;;16.43;87.72;99246.92;109193;1276;22304;-58
2022/07/25 03:47:43;;;;;;;10.30;6.60;;;;;;;16.45;87.59;99245.61;109168;1276;22495;-58
2022/07/25 03:50:10;;;;;;;9.70;5.80;;;;;;;16.48;87.44;99250.67;109140;1275;138841;-58
2022/07/25 03:52:37;;;;;;;7.90;5.50;;;;;;;16.52;87.55;99249.08;109265;1276;22458;-58
2022/07/25 03:55:07;;;;;;;12.40;6.20;;;;;;;16.55;87.39;99245.88;109038;1276;138609;-58
2022/07/25 03:57:33;;;;;;;10.70;5.70;;;;;;;16.59;87.34;99248.55;109373;1277;23212;-58
2022/07/25 04:00:00;;;;;;;10.10;6.20;;;;;;;16.63;87.26;99249.25;109196;1276;139397;-59
2022/07/25 04:02:31;;;;;;;10.80;6.00;;;;;;;16.65;86.99;99255.61;109305;1275;22449;-59
2022/07/25 04:04:58;;;;;;;7.00;6.10;;;;;;;16.68;86.61;99260.36;109194;1278;22282;-59
2022/07/25 04:07:25;;;;;;;11.50;5.90;;;;;;;16.67;86.46;99264.11;109118;1276;139146;-59
2022/07/25 04:09:51;;;;;;;9.70;6.20;;;;;;;16.66;86.52;99268.14;108982;1277;22475;-59
2022/07/25 04:12:18;;;;;;;8.10;5.80;;;;;;;16.66;86.48;99267.98;109138;1277;140664;-59
2022/07/25 04:14:45;;;;;;;10.70;6.50;;;;;;;16.67;86.34;99270.73;109285;1276;22501;-59
2022/07/25 04:17:12;;;;;;;12.20;5.10;;;;;;;16.69;86.33;99268.52;109256;1275;23178;-59
2022/07/25 04:19:38;;;;;;;11.20;6.50;;;;;;;16.68;85.88;99262.71;109135;1276;140133;-60
2022/07/25 04:22:05;;;;;;;9.80;6.40;;;;;;;16.69;85.88;99259.95;109303;1275;22614;-59
2022/07/25 04:24:32;;;;;;;6.90;5.40;;;;;;;16.71;85.89;99264.05;109059;1276;139065;-59
2022/07/25 04:26:59;;;;;;;7.90;5.80;;;;;;;16.71;85.85;99261.79;109216;1277;23582;-59
2022/07/25 04:29:26;;;;;;;11.30;6.50;;;;;;;16.72;85.86;99262.03;109203;1276;22482;-60
2022/07/25 04:31:52;;;;;;;9.10;6.60;;;;;;;16.76;85.95;99263.65;109174;1276;139114;-59
2022/07/25 04:34:19;;;;;;;9.30;6.50;;;;;;;16.80;85.70;99264.80;109334;1276;22538;-59
2022/07/25 04:36:46;;;;;;;9.60;6.90;;;;;;;16.81;85.53;99264.66;109257;1276;139174;-60
2022/07/25 04:39:13;;;;;;;8.80;5.90;;;;;;;16.84;85.34;99265.82;109148;1276;22634;-60
2022/07/25 04:41:40;;;;;;;11.10;6.20;;;;;;;16.86;85.45;99267.48;109104;1277;23231;-60
2022/07/25 04:44:07;;;;;;;9.80;6.50;;;;;;;16.89;85.31;99273.25;109106;1276;138599;-60
2022/07/25 04:46:34;;;;;;;8.20;5.90;;;;;;;16.90;85.31;99270.20;109219;1277;22446;-60
2022/07/25 04:49:01;;;;;;;11.50;6.50;;;;;;;16.90;85.05;99272.89;109210;1277;138326;-60
2022/07/25 04:51:28;;;;;;;11.70;6.70;;;;;;;16.91;84.97;99272.98;109282;1276;22578;-60
2022/07/25 04:53:55;;;;;;;11.90;6.70;;;;;;;16.92;85.02;99275.98;109112;1276;139960;-60
2022/07/25 04:56:22;;;;;;;9.20;6.30;;;;;;;16.94;85.01;99275.17;109217;1276;22655;-60
2022/07/25 04:58:48;;;;;;;7.50;5.80;;;;;;;16.98;84.99;99277.88;109343;1276;22547;-60
2022/07/25 05:01:15;;;;;;;10.50;6.50;;;;;;;16.98;84.71;99278.30;109089;1276;139260;-60
2022/07/25 05:03:42;;;;;;;9.50;7.10;;;;;;;16.97;84.66;99279.32;109293;1275;22426;-60
2022/07/25 05:06:17;;;;;;;9.70;6.30;;;;;;;17.00;84.74;99285.55;109156;1276;138426;-60
2022/07/25 05:08:44;;;;;;;12.60;6.70;;;;;;;17.02;84.69;99281.16;109293;1275;22466;-60
2022/07/25 05:11:11;;;;;;;12.00;6.80;;;;;;;17.04;84.82;99279.81;109203;1276;22433;-60
2022/07/25 05:13:38;;;;;;;11.20;7.00;;;;;;;17.07;84.73;99279.55;109117;1276;139923;-60
2022/07/25 05:16:05;;;;;;;13.90;7.20;;;;;;;17.08;84.61;99277.98;109149;1276;22638;-60
2022/07/25 05:18:35;;;;;;;11.70;7.10;;;;;;;17.12;84.88;99279.95;109082;1276;139386;-60
2022/07/25 05:21:01;;;;;;;10.30;6.80;;;;;;;17.18;84.74;99282.11;109255;1276;23646;-61
2022/07/25 05:23:28;;;;;;;9.30;6.70;;;;;;;17.23;84.54;99282.40;109284;1276;23344;-60
2022/07/25 05:25:55;;;;;;;11.30;6.70;;;;;;;17.27;84.28;99282.71;109095;1276;139040;-60
2022/07/25 05:28:22;;;;;;;11.20;6.30;;;;;;;17.30;84.21;99286.02;109256;1275;23106;-61
2022/07/25 05:30:48;;;;;;;9.30;6.80;;;;;;;17.32;84.05;99283.75;109173;1276;139334;-61
2022/07/25 05:33:15;;;;;;;7.90;5.90;;;;;;;17.36;83.95;99284.28;109182;1277;22459;-61
2022/07/25 05:35:42;;;;;;;10.00;6.40;;;;;;;17.40;83.83;99286.40;109190;1276;23250;-61
2022/07/25 05:38:09;;;;;;;7.30;6.20;;;;;;;17.42;83.38;99283.33;109098;1276;141378;-61
2022/07/25 05:40:35;;;;;;;8.10;6.50;;;;;;;17.42;83.38;99283.16;109061;1276;23350;-61
2022/07/25 05:43:02;;;;;;;15.00;6.80;;;;;;;17.42;83.18;99284.00;109096;1276;138990;-61
2022/07/25 05:45:30;;;;;;;9.30;6.00;;;;;;;17.41;83.13;99285.50;109190;1276;22486;-61
2022/07/25 05:47:57;;;;;;;9.60;6.00;;;;;;;17.42;83.10;99284.10;108824;1278;139899;-61
2022/07/25 05:50:23;;;;;;;8.30;6.20;;;;;;;17.46;83.03;99284.74;109149;1277;22592;-61
2022/07/25 05:52:50;;;;;;;9.90;6.60;;;;;;;17.49;82.88;99280.90;109129;1277;22463;-61
2022/07/25 05:55:17;;;;;;;12.40;6.70;;;;;;;17.53;82.93;99281.70;109074;1277;138150;-61
2022/07/25 05:57:44;;;;;;;12.90;6.10;;;;;;;17.58;82.98;99279.67;109159;1277;22600;-60
2022/07/25 06:00:11;;;;;;;9.30;6.40;;;;;;;17.66;82.77;99280.95;109013;1276;138733;-61
2022/07/25 06:02:38;;;;;;;10.00;6.90;;;;;;;17.72;82.45;99274.82;109222;1276;22463;-60
2022/07/25 06:05:05;;;;;;;9.50;6.30;;;;;;;17.75;82.16;99274.34;109160;1277;22595;-61
2022/07/25 06:07:32;;;;;;;12.40;6.60;;;;;;;17.82;82.37;99271.98;109109;1276;138466;-60
2022/07/25 06:09:58;;;;;;;12.10;6.70;;;;;;;17.91;82.37;99267.89;109071;1278;22636;-60
2022/07/25 06:12:25;;;;;;;12.50;6.00;;;;;;;18.01;82.32;99267.55;109081;1277;139337;-60
2022/07/25 06:14:52;;;;;;;10.90;7.00;;;;;;;18.13;82.09;99267.09;109204;1276;22533;-60
2022/07/25 06:17:19;;;;;;;10.60;6.20;;;;;;;18.28;81.44;99266.21;105380;1277;24241;-60
2022/07/25 06:19:46;;;;;;;10.20;7.50;;;;;;;18.40;80.97;99266.73;104705;1278;139225;-59
2022/07/25 06:22:13;;;;;;;15.70;7.50;;;;;;;18.51;80.48;99261.08;104661;1279;24266;-60
2022/07/25 06:24:40;;;;;;;8.50;6.90;;;;;;;18.63;79.81;99259.75;104617;1279;139107;-60
2022/07/25 06:27:07;;;;;;;12.40;7.00;;;;;;;18.71;79.63;99254.46;104829;1278;24000;-60
2022/07/25 06:29:34;;;;;;;9.90;7.00;;;;;;;18.78;79.04;99255.92;109200;1276;22488;-60
2022/07/25 06:32:01;;;;;;;9.20;6.30;;;;;;;18.85;78.60;99260.77;108996;1277;139064;-60
2022/07/25 06:34:28;;;;;;;11.30;6.10;;;;;;;18.91;78.55;99254.38;109175;1277;22466;-60
2022/07/25 06:36:56;;;;;;;13.50;6.60;;;;;;;18.99;78.38;99257.92;108971;1277;140893;-60
2022/07/25 06:39:24;;;;;;;8.40;5.80;;;;;;;19.07;78.12;99255.79;109169;1276;22551;-60
2022/07/25 06:41:51;;;;;;;10.70;7.00;;;;;;;19.17;77.64;99253.67;109199;1276;22458;-60
2022/07/25 06:44:17;;;;;;;8.50;6.40;;;;;;;19.26;77.53;99252.69;109131;1276;139960;-59
2022/07/25 06:46:44;;;;;;;13.20;6.80;;;;;;;19.37;77.16;99246.17;109071;1277;22513;-60
2022/07/25 06:49:11;;;;;;;12.00;6.60;;;;;;;19.49;76.51;99245.17;108995;1277;139216;-59
2022/07/25 06:51:38;;;;;;;7.30;5.60;;;;;;;19.57;76.44;99243.60;109092;1277;22457;-60
2022/07/25 06:54:05;;;;;;;10.40;6.00;;;;;;;19.65;76.39;99250.36;108951;1277;139754;-60
2022/07/25 06:56:32;;;;;;;10.70;6.40;;;;;;;19.69;75.89;99246.98;106712;1277;22555;-59
2022/07/25 06:58:59;;;;;;;7.30;5.70;;;;;;;19.73;75.37;99251.06;104782;1277;22743;-60
2022/07/25 07:01:26;;;;;;;7.80;6.00;;;;;;;19.72;74.70;99250.96;104681;1276;140042;-59
2022/07/25 07:03:53;;;;;;;9.80;5.20;;;;;;;19.71;74.66;99249.30;104637;1280;22701;-59
2022/07/25 07:06:20;;;;;;;8.80;5.50;;;;;;;19.70;74.19;99246.77;104739;1278;139176;-59
2022/07/25 07:08:47;;;;;;;7.80;5.30;;;;;;;19.71;73.88;99250.66;104744;1278;23973;-59
2022/07/25 07:11:15;;;;;;;9.30;5.10;;;;;;;19.73;73.50;99255.36;104809;1277;26641;-58
2022/07/25 07:13:42;;;;;;;9.90;5.90;;;;;;;19.78;73.05;99257.13;104795;1278;138489;-59
2022/07/25 07:16:09;;;;;;;11.10;5.90;;;;;;;19.81;72.73;99250.85;104811;1278;22565;-59
2022/07/25 07:18:37;;;;;;;7.30;4.70;;;;;;;19.84;72.67;99250.59;109018;1277;139110;-59
2022/07/25 07:21:04;;;;;;;6.90;4.90;;;;;;;19.90;72.61;99249.08;109179;1277;22466;-60
2022/07/25 07:23:31;;;;;;;6.50;4.80;;;;;;;20.00;72.37;99248.74;109221;1277;22496;-60
2022/07/25 07:25:58;;;;;;;7.10;4.90;;;;;;;20.12;72.07;99246.67;107674;1278;138408;-59
2022/07/25 07:28:25;;;;;;;8.50;5.40;;;;;;;20.25;71.77;99246.35;104791;1277;25276;-60
2022/07/25 07:30:52;;;;;;;10.10;5.30;;;;;;;20.31;71.24;99242.58;104781;1277;139201;-59
2022/07/25 07:33:39;;;;;;;7.20;5.60;;;;;;;20.33;70.63;99244.17;104955;1277;24517;-59
2022/07/25 07:36:06;;;;;;;10.40;5.70;;;;;;;20.32;71.00;99239.15;104821;1280;138910;-58
2022/07/25 07:38:33;;;;;;;9.10;5.00;;;;;;;20.37;70.14;99240.36;104974;1277;22598;-59
2022/07/25 07:41:00;;;;;;;9.20;4.70;;;;;;;20.39;69.40;99241.46;104986;1277;22554;-58
2022/07/25 07:43:30;;;;;;;7.70;5.50;;;;;;;20.36;69.22;99245.33;104820;1278;139618;-58
2022/07/25 07:46:00;;;;;;;7.50;4.90;;;;;;;20.33;69.38;99245.94;104799;1278;25055;-58
2022/07/25 07:48:28;;;;;;;6.40;5.30;;;;;;;20.35;69.16;99243.02;104760;1277;139226;-58
2022/07/25 07:50:56;;;;;;;7.30;4.80;;;;;;;20.37;68.72;99244.40;109210;1276;22568;-59
2022/07/25 07:55:42;;;;;;;10.60;5.40;;;;;;;20.40;68.55;99242.63;109213;1277;22342;-60
2022/07/25 07:56:11;;;;;;;8.50;5.60;;;;;;;20.51;68.89;99242.84;107351;1277;140517;-59
2022/07/25 07:58:37;;;;;;;9.60;5.10;;;;;;;20.63;68.37;99244.72;104888;1278;22568;-59
2022/07/25 08:01:05;;;;;;;9.50;5.00;;;;;;;20.73;67.97;99245.08;104782;1277;138772;-59
2022/07/25 08:03:32;;;;;;;8.30;5.20;;;;;;;20.81;67.92;99246.01;104855;1278;24294;-60
2022/07/25 08:05:58;;;;;;;10.10;6.10;;;;;;;20.84;67.67;99245.67;104827;1277;139075;-61
2022/07/25 08:08:25;;;;;;;7.70;4.80;;;;;;;20.84;67.22;99244.63;104931;1278;26563;-58
2022/07/25 08:10:57;;;;;;;9.50;4.70;;;;;;;20.80;66.73;99240.90;109185;1277;22447;-59
2022/07/25 08:13:27;;;;;;;8.90;5.10;;;;;;;20.77;67.29;99243.40;109089;1277;138797;-58
2022/07/25 08:15:57;;;;;;;7.70;4.90;;;;;;;20.82;67.34;99236.00;109160;1277;22546;-58
2022/07/25 08:18:25;;;;;;;5.40;4.50;;;;;;;20.94;66.77;99238.46;109124;1276;138199;-58
2022/07/25 08:20:52;;;;;;;8.30;5.00;;;;;;;21.09;66.32;99235.62;109112;1277;23250;-58
2022/07/25 08:23:19;;;;;;;6.00;4.40;;;;;;;21.23;65.79;99238.56;109203;1277;22423;-59
2022/07/25 08:25:46;;;;;;;5.00;4.20;;;;;;;21.34;64.60;99236.34;107866;1277;141091;-59
2022/07/25 08:28:13;;;;;;;7.10;4.60;;;;;;;21.46;64.40;99241.41;104647;1278;22786;-59
2022/07/25 08:30:40;;;;;;;5.60;4.50;;;;;;;21.53;63.17;99246.17;104546;1278;137865;-59
2022/07/25 08:33:12;;;;;;;7.00;4.90;;;;;;;21.51;62.63;99243.48;104822;1277;23988;-59
2022/07/25 08:35:40;;;;;;;6.60;4.10;;;;;;;21.44;62.89;99249.48;104873;1277;23285;-60
2022/07/25 08:38:10;;;;;;;6.30;4.80;;;;;;;21.39;62.36;99250.13;104700;1278;138378;-60
2022/07/25 08:40:37;;;;;;;8.00;5.60;;;;;;;21.33;62.31;99248.65;109203;1277;22481;-59
2022/07/25 08:43:04;;;;;;;9.80;4.80;;;;;;;21.28;62.87;99245.02;109051;1277;139490;-59
2022/07/25 08:45:31;;;;;;;7.00;4.90;;;;;;;21.26;63.38;99243.76;108979;1277;22583;-59
2022/07/25 08:47:58;;;;;;;5.80;4.90;;;;;;;21.28;63.06;99247.07;109030;1277;137636;-59
2022/07/25 08:50:27;;;;;;;9.70;5.20;;;;;;;21.30;62.78;99240.58;109106;1277;22596;-58
2022/07/25 08:52:53;;;;;;;6.80;4.80;;;;;;;21.33;62.28;99246.60;109161;1277;22716;-58
2022/07/25 08:55:42;;;;;;;9.40;5.60;;;;;;;21.31;61.92;99250.88;109051;1277;137659;-58
2022/07/25 08:58:09;;;;;;;9.80;5.70;;;;;;;21.29;62.29;99249.02;109150;1277;22427;-59
2022/07/25 09:00:36;;;;;;;7.90;5.20;;;;;;;21.26;61.87;99248.41;109121;1277;138348;-59
2022/07/25 09:03:05;;;;;;;6.40;5.10;;;;;;;21.23;62.71;99248.86;109133;1277;22458;-59
2022/07/25 09:05:32;;;;;;;7.20;5.60;;;;;;;21.25;63.22;99251.61;108545;1277;22595;-59
2022/07/25 09:08:10;;;;;;;8.30;5.50;;;;;;;21.31;63.73;99248.70;104905;1278;138707;-59
2022/07/25 09:10:38;;;;;;;9.60;5.50;;;;;;;21.40;63.44;99243.04;104860;1277;24009;-60
2022/07/25 09:13:06;;;;;;;7.80;5.20;;;;;;;21.49;63.50;99240.14;104841;1277;139438;-58
2022/07/25 09:15:40;;;;;;;9.40;5.10;;;;;;;21.58;63.29;99239.80;109214;1277;23098;-59
2022/07/25 09:18:09;;;;;;;6.30;4.70;;;;;;;21.68;62.41;99239.42;109130;1277;138300;-60
2022/07/25 09:20:52;;;;;;;7.30;4.70;;;;;;;21.75;62.64;99238.85;109052;1277;23172;-60
2022/07/25 09:23:32;;;;;;;8.40;5.20;;;;;;;21.83;61.01;99235.44;108870;1277;23362;-59
2022/07/25 09:26:12;;;;;;;10.20;5.10;;;;;;;21.93;60.48;99222.92;108893;1277;138173;-59
2022/07/25 09:28:43;;;;;;;7.30;5.50;;;;;;;22.01;59.92;99224.60;109140;1277;22466;-59
2022/07/25 09:31:10;;;;;;;6.80;5.00;;;;;;;22.08;60.29;99227.48;109025;1276;138557;-59
2022/07/25 09:33:50;;;;;;;6.20;4.60;;;;;;;22.13;59.03;99224.52;108930;1277;22497;-59
2022/07/25 09:36:17;;;;;;;8.70;4.60;;;;;;;22.15;58.57;99224.90;109044;1276;138647;-59
2022/07/25 09:38:54;;;;;;;6.90;4.90;;;;;;;22.14;58.68;99226.60;109146;1277;22466;-59
2022/07/25 09:41:21;;;;;;;;;;;;;;;22.18;59.22;99225.98;109210;1277;23452;-59
2022/07/25 09:43:48;;;;;;;6.00;4.10;;;;;;;22.26;59.30;99228.69;109087;1277;124147;-59
2022/07/25 09:46:14;;;;;;;4.90;4.40;;;;;;;22.35;58.38;99229.72;109257;1276;22690;-59
2022/07/25 09:48:43;;;;;;;7.10;5.10;;;;;;;22.40;56.83;99228.94;109070;1276;137864;-59
2022/07/25 09:51:10;;;;;;;4.90;4.40;;;;;;;22.39;56.37;99229.77;109177;1276;22474;-59
2022/07/25 09:53:37;;;;;;;8.30;4.60;;;;;;;22.35;56.23;99231.85;109107;1276;23532;-59
2022/07/25 09:56:04;;;;;;;7.20;4.80;;;;;;;22.29;56.51;99229.13;109144;1276;138390;-59
2022/07/25 09:58:31;;;;;;;7.20;5.50;;;;;;;22.21;56.82;99228.14;109260;1277;23061;-59
2022/07/25 10:01:03;;;;;;;5.80;4.60;;;;;;;22.15;57.21;99227.02;109234;1276;138361;-59
2022/07/25 10:03:42;;;;;;;7.70;4.90;;;;;;;22.10;57.68;99228.98;109053;1277;22254;-59
2022/07/25 10:08:41;;;;;;;8.30;5.40;;;;;;;22.07;57.60;99235.00;101886;1310;545253;-60
2022/07/25 10:11:21;;;;;;;5.90;4.60;;;;;;;22.02;57.24;99228.46;103988;1286;22883;-58
2022/07/25 10:13:48;;;;;;;7.90;5.20;;;;;;;22.00;57.54;99220.93;103587;1289;138549;-58
2022/07/25 10:16:20;;;;;;;6.60;5.00;;;;;;;22.04;57.67;99216.40;103519;1291;25554;-59
2022/07/25 10:18:51;;;;;;;5.50;4.50;;;;;;;22.12;57.73;99216.70;107754;1288;137760;-59
2022/07/25 10:21:18;;;;;;;7.90;5.40;;;;;;;22.23;57.98;99223.83;107837;1286;225356;-60
2022/07/25 10:24:05;;;;;;;6.20;4.70;;;;;;;22.37;56.47;99224.08;108335;1285;22546;-59
2022/07/25 10:26:34;;;;;;;6.80;5.00;;;;;;;22.45;55.41;99220.23;108243;1287;22498;-59
2022/07/25 10:29:06;;;;;;;7.00;5.50;;;;;;;22.50;55.37;99218.54;108229;1286;22449;-60
2022/07/25 10:31:36;;;;;;;9.00;6.00;;;;;;;22.52;55.22;99216.12;108065;1287;137900;-60
2022/07/25 10:34:08;;;;;;;9.90;5.10;;;;;;;22.50;55.39;99215.73;108433;1284;22546;-60
2022/07/25 10:36:42;;;;;;;8.30;6.10;;;;;;;22.47;55.66;99218.58;108627;1281;136963;-60
2022/07/25 10:39:10;;;;;;;9.20;6.40;;;;;;;22.43;55.87;99222.80;108629;1282;22983;-60
2022/07/25 10:41:51;;;;;;;11.00;5.60;;;;;;;22.38;55.62;99228.55;108535;1282;23251;-60
2022/07/25 10:44:18;;;;;;;7.10;5.80;;;;;;;22.31;55.66;99228.65;108598;1281;137384;-60
2022/07/25 10:46:45;;;;;;;6.90;5.20;;;;;;;22.24;56.18;99230.05;108494;1284;22608;-60
2022/07/25 10:49:25;;;;;;;7.80;5.20;;;;;;;22.17;57.05;99227.85;108576;1281;137594;-59
2022/07/25 10:51:59;;;;;;;7.00;5.20;;;;;;;22.13;57.58;99230.20;108508;1282;22467;-59
2022/07/25 10:54:34;;;;;;;10.20;5.00;;;;;;;22.08;57.87;99229.63;108603;1281;137696;-59
2022/07/25 10:57:02;;;;;;;9.50;6.00;;;;;;;22.03;58.17;99223.19;108677;1281;23222;-61
2022/07/25 10:59:33;;;;;;;8.90;5.40;;;;;;;21.98;58.32;99226.96;108647;1282;22603;-59
2022/07/25 11:02:01;;;;;;;10.70;6.20;;;;;;;21.96;58.53;99228.92;108505;1283;136996;-59
2022/07/25 11:04:28;;;;;;;7.40;5.90;;;;;;;21.95;58.54;99227.30;108616;1283;22449;-59
2022/07/25 11:06:55;;;;;;;9.60;6.10;;;;;;;21.95;58.20;99222.86;105513;1282;137364;-59
2022/07/25 11:09:26;;;;;;;6.40;5.10;;;;;;;21.96;58.20;99222.02;104236;1284;24169;-60
2022/07/25 11:11:56;;;;;;;11.00;5.70;;;;;;;21.96;57.89;99221.95;108580;1282;22545;-60
2022/07/25 11:14:31;;;;;;;8.00;5.60;;;;;;;21.99;58.10;99218.67;108363;1282;139112;-60
2022/07/25 11:17:19;;;;;;;10.10;6.10;;;;;;;22.08;57.80;99216.94;108522;1281;22467;-59
2022/07/25 11:19:55;;;;;;;;;;;;;;;22.19;56.98;99214.58;108443;1283;137965;-59
2022/07/25 11:22:23;;;;;;;7.60;5.50;;;;;;;22.27;56.98;99212.95;108413;1283;22436;-59
2022/07/25 11:24:50;;;;;;;10.30;6.80;;;;;;;22.34;56.91;99212.23;108399;1283;137022;-59
2022/07/25 11:27:21;;;;;;;9.10;6.10;;;;;;;22.39;56.59;99213.69;108420;1284;22499;-59